sensor_id;sensor_type;location;lat;lon;timestamp;temperature;humidity
51725;DHT22;37801;53.224;6.552;2022-12-18T00:00:47;-0.40;40.40
51725;DHT22;37801;53.224;6.552;2022-12-18T00:03:14;-0.50;31.90
51725;DHT22;37801;53.224;6.552;2022-12-18T00:05:51;-0.50;31.30
51725;DHT22;37801;53.224;6.552;2022-12-18T00:08:18;-0.60;31.50
51725;DHT22;37801;53.224;6.552;2022-12-18T00:10:44;-0.60;29.90
51725;DHT22;37801;53.224;6.552;2022-12-18T00:13:10;-0.60;30.80
51725;DHT22;37801;53.224;6.552;2022-12-18T00:15:37;-0.60;33.70
51725;DHT22;37801;53.224;6.552;2022-12-18T00:18:03;-0.60;33.10
51725;DHT22;37801;53.224;6.552;2022-12-18T00:20:29;-0.60;31.10
51725;DHT22;37801;53.224;6.552;2022-12-18T00:22:55;-0.60;32.80
51725;DHT22;37801;53.224;6.552;2022-12-18T00:25:21;-0.60;29.20
51725;DHT22;37801;53.224;6.552;2022-12-18T00:27:47;-0.60;26.30
51725;DHT22;37801;53.224;6.552;2022-12-18T00:30:13;-0.60;29.20
51725;DHT22;37801;53.224;6.552;2022-12-18T00:32:39;-0.60;28.70
51725;DHT22;37801;53.224;6.552;2022-12-18T00:35:06;-0.70;27.40
51725;DHT22;37801;53.224;6.552;2022-12-18T00:37:33;-0.70;29.20
51725;DHT22;37801;53.224;6.552;2022-12-18T00:39:59;-0.70;29.80
51725;DHT22;37801;53.224;6.552;2022-12-18T00:42:25;-0.80;26.70
51725;DHT22;37801;53.224;6.552;2022-12-18T00:45:10;-0.80;29.50
51725;DHT22;37801;53.224;6.552;2022-12-18T00:47:35;-0.90;26.20
51725;DHT22;37801;53.224;6.552;2022-12-18T00:50:01;-0.80;26.60
51725;DHT22;37801;53.224;6.552;2022-12-18T00:52:27;-0.90;28.50
51725;DHT22;37801;53.224;6.552;2022-12-18T00:54:52;-0.90;26.80
51725;DHT22;37801;53.224;6.552;2022-12-18T00:57:18;-0.90;27.30
51725;DHT22;37801;53.224;6.552;2022-12-18T00:59:44;-0.90;28.50
51725;DHT22;37801;53.224;6.552;2022-12-18T01:02:09;-0.90;24.90
51725;DHT22;37801;53.224;6.552;2022-12-18T01:04:35;-0.90;29.60
51725;DHT22;37801;53.224;6.552;2022-12-18T01:07:01;-0.90;30.20
51725;DHT22;37801;53.224;6.552;2022-12-18T01:09:26;-0.80;26.00
51725;DHT22;37801;53.224;6.552;2022-12-18T01:11:52;-0.80;25.90
51725;DHT22;37801;53.224;6.552;2022-12-18T01:14:18;-0.90;29.00
51725;DHT22;37801;53.224;6.552;2022-12-18T01:16:43;-0.80;29.10
51725;DHT22;37801;53.224;6.552;2022-12-18T01:19:09;-0.80;28.80
51725;DHT22;37801;53.224;6.552;2022-12-18T01:21:35;-0.80;27.30
51725;DHT22;37801;53.224;6.552;2022-12-18T01:24:01;-0.90;25.30
51725;DHT22;37801;53.224;6.552;2022-12-18T01:26:27;-0.90;23.90
51725;DHT22;37801;53.224;6.552;2022-12-18T01:28:55;-0.70;26.80
51725;DHT22;37801;53.224;6.552;2022-12-18T01:31:30;-0.90;27.10
51725;DHT22;37801;53.224;6.552;2022-12-18T01:33:56;-0.90;22.00
51725;DHT22;37801;53.224;6.552;2022-12-18T01:36:27;-0.90;24.70
51725;DHT22;37801;53.224;6.552;2022-12-18T01:38:53;-1.10;23.90
51725;DHT22;37801;53.224;6.552;2022-12-18T01:41:25;-1.10;24.60
51725;DHT22;37801;53.224;6.552;2022-12-18T01:43:56;-1.10;24.30
51725;DHT22;37801;53.224;6.552;2022-12-18T01:46:24;-1.10;24.00
51725;DHT22;37801;53.224;6.552;2022-12-18T01:48:59;-1.20;22.70
51725;DHT22;37801;53.224;6.552;2022-12-18T01:51:28;-1.20;23.80
51725;DHT22;37801;53.224;6.552;2022-12-18T01:53:55;-1.20;23.30
51725;DHT22;37801;53.224;6.552;2022-12-18T01:56:21;-1.20;23.40
51725;DHT22;37801;53.224;6.552;2022-12-18T01:58:56;-1.30;21.00
51725;DHT22;37801;53.224;6.552;2022-12-18T02:01:24;-1.30;23.70
51725;DHT22;37801;53.224;6.552;2022-12-18T02:03:51;-1.30;23.40
51725;DHT22;37801;53.224;6.552;2022-12-18T02:06:32;-1.30;24.40
51725;DHT22;37801;53.224;6.552;2022-12-18T02:09:18;-1.20;26.10
51725;DHT22;37801;53.224;6.552;2022-12-18T02:12:13;-1.30;22.50
51725;DHT22;37801;53.224;6.552;2022-12-18T02:17:19;-1.20;21.00
51725;DHT22;37801;53.224;6.552;2022-12-18T02:22:36;-1.20;18.10
51725;DHT22;37801;53.224;6.552;2022-12-18T02:25:13;-1.20;19.70
51725;DHT22;37801;53.224;6.552;2022-12-18T02:27:44;-1.30;19.00
51725;DHT22;37801;53.224;6.552;2022-12-18T02:30:12;-1.30;19.50
51725;DHT22;37801;53.224;6.552;2022-12-18T02:32:43;-1.20;21.00
51725;DHT22;37801;53.224;6.552;2022-12-18T02:35:14;-1.30;18.80
51725;DHT22;37801;53.224;6.552;2022-12-18T02:37:42;-1.20;16.50
51725;DHT22;37801;53.224;6.552;2022-12-18T02:40:09;-1.20;19.80
51725;DHT22;37801;53.224;6.552;2022-12-18T02:42:36;-1.20;18.40
51725;DHT22;37801;53.224;6.552;2022-12-18T02:45:02;-1.20;15.30
51725;DHT22;37801;53.224;6.552;2022-12-18T02:47:31;-1.20;16.90
51725;DHT22;37801;53.224;6.552;2022-12-18T02:50:10;-1.20;14.50
51725;DHT22;37801;53.224;6.552;2022-12-18T02:57:58;-1.40;14.80
51725;DHT22;37801;53.224;6.552;2022-12-18T03:00:54;-1.30;17.40
51725;DHT22;37801;53.224;6.552;2022-12-18T03:03:36;-1.30;16.10
51725;DHT22;37801;53.224;6.552;2022-12-18T03:06:08;-1.30;13.40
51725;DHT22;37801;53.224;6.552;2022-12-18T03:08:49;-1.30;14.50
51725;DHT22;37801;53.224;6.552;2022-12-18T03:11:16;-1.40;14.40
51725;DHT22;37801;53.224;6.552;2022-12-18T03:14:04;-1.40;14.30
51725;DHT22;37801;53.224;6.552;2022-12-18T03:16:31;-1.30;16.20
51725;DHT22;37801;53.224;6.552;2022-12-18T03:19:01;-1.40;15.20
51725;DHT22;37801;53.224;6.552;2022-12-18T03:21:35;-1.40;13.70
51725;DHT22;37801;53.224;6.552;2022-12-18T03:24:06;-1.40;14.60
51725;DHT22;37801;53.224;6.552;2022-12-18T03:26:34;-1.40;13.00
51725;DHT22;37801;53.224;6.552;2022-12-18T03:29:05;-1.30;13.40
51725;DHT22;37801;53.224;6.552;2022-12-18T03:31:32;-1.40;14.80
51725;DHT22;37801;53.224;6.552;2022-12-18T03:34:04;-1.40;12.90
51725;DHT22;37801;53.224;6.552;2022-12-18T03:36:31;-1.40;13.00
51725;DHT22;37801;53.224;6.552;2022-12-18T03:38:57;-1.40;14.40
51725;DHT22;37801;53.224;6.552;2022-12-18T03:41:54;-1.40;11.70
51725;DHT22;37801;53.224;6.552;2022-12-18T03:44:31;-1.30;11.10
51725;DHT22;37801;53.224;6.552;2022-12-18T03:47:28;-1.40;10.50
51725;DHT22;37801;53.224;6.552;2022-12-18T03:50:18;-1.30;15.10
51725;DHT22;37801;53.224;6.552;2022-12-18T03:52:51;-1.40;9.30
51725;DHT22;37801;53.224;6.552;2022-12-18T03:55:19;-1.40;10.00
51725;DHT22;37801;53.224;6.552;2022-12-18T03:57:47;-1.40;11.20
51725;DHT22;37801;53.224;6.552;2022-12-18T04:00:16;-1.40;12.60
51725;DHT22;37801;53.224;6.552;2022-12-18T04:02:52;-1.40;13.20
51725;DHT22;37801;53.224;6.552;2022-12-18T04:05:19;-1.40;8.40
51725;DHT22;37801;53.224;6.552;2022-12-18T04:07:47;-1.40;11.30
51725;DHT22;37801;53.224;6.552;2022-12-18T04:10:16;-1.40;11.80
51725;DHT22;37801;53.224;6.552;2022-12-18T04:12:42;-1.40;8.60
51725;DHT22;37801;53.224;6.552;2022-12-18T04:15:08;-1.40;6.30
51725;DHT22;37801;53.224;6.552;2022-12-18T04:17:34;-1.40;6.90
51725;DHT22;37801;53.224;6.552;2022-12-18T04:20:00;-1.40;8.00
51725;DHT22;37801;53.224;6.552;2022-12-18T04:22:26;-1.40;7.00
51725;DHT22;37801;53.224;6.552;2022-12-18T04:24:52;-1.40;8.30
51725;DHT22;37801;53.224;6.552;2022-12-18T04:27:17;-1.50;4.60
51725;DHT22;37801;53.224;6.552;2022-12-18T04:29:43;-1.50;3.50
51725;DHT22;37801;53.224;6.552;2022-12-18T04:32:09;-1.50;6.80
51725;DHT22;37801;53.224;6.552;2022-12-18T04:34:34;-1.50;5.70
51725;DHT22;37801;53.224;6.552;2022-12-18T04:37:00;-1.40;6.20
51725;DHT22;37801;53.224;6.552;2022-12-18T04:39:26;-1.40;3.70
51725;DHT22;37801;53.224;6.552;2022-12-18T04:41:52;-1.50;2.30
51725;DHT22;37801;53.224;6.552;2022-12-18T04:44:17;-1.50;3.80
51725;DHT22;37801;53.224;6.552;2022-12-18T04:46:43;-1.40;6.00
51725;DHT22;37801;53.224;6.552;2022-12-18T04:49:09;-1.40;4.00
51725;DHT22;37801;53.224;6.552;2022-12-18T04:51:36;-1.40;1.90
51725;DHT22;37801;53.224;6.552;2022-12-18T04:54:03;-1.40;2.10
51725;DHT22;37801;53.224;6.552;2022-12-18T04:56:31;-1.40;1.00
51725;DHT22;37801;53.224;6.552;2022-12-18T04:58:57;-1.50;1.80
51725;DHT22;37801;53.224;6.552;2022-12-18T05:01:23;-1.50;5.10
51725;DHT22;37801;53.224;6.552;2022-12-18T05:03:48;-1.50;3.70
51725;DHT22;37801;53.224;6.552;2022-12-18T05:06:14;-1.50;4.30
51725;DHT22;37801;53.224;6.552;2022-12-18T05:08:40;-1.50;1.00
51725;DHT22;37801;53.224;6.552;2022-12-18T05:11:11;-1.50;1.00
51725;DHT22;37801;53.224;6.552;2022-12-18T05:13:38;-1.60;1.00
51725;DHT22;37801;53.224;6.552;2022-12-18T05:16:04;-1.60;1.00
51725;DHT22;37801;53.224;6.552;2022-12-18T05:18:30;-1.60;1.00
51725;DHT22;37801;53.224;6.552;2022-12-18T05:20:57;-1.60;1.00
51725;DHT22;37801;53.224;6.552;2022-12-18T05:23:24;-1.60;1.00
